sensor_id;sensor_type;location;lat;lon;timestamp;temperature;humidity
21801;DHT22;11062;51.164;16.924;2022-07-03T00:02:16;35.10;40.90
21801;DHT22;11062;51.164;16.924;2022-07-03T00:04:45;35.10;41.30
21801;DHT22;11062;51.164;16.924;2022-07-03T00:07:11;35.30;40.40
21801;DHT22;11062;51.164;16.924;2022-07-03T00:09:37;35.10;41.20
21801;DHT22;11062;51.164;16.924;2022-07-03T00:12:07;35.00;41.20
21801;DHT22;11062;51.164;16.924;2022-07-03T00:14:33;35.20;40.40
21801;DHT22;11062;51.164;16.924;2022-07-03T00:16:59;35.30;40.60
21801;DHT22;11062;51.164;16.924;2022-07-03T00:19:25;35.20;40.50
21801;DHT22;11062;51.164;16.924;2022-07-03T00:22:12;34.00;39.90
21801;DHT22;11062;51.164;16.924;2022-07-03T00:24:47;35.00;40.70
21801;DHT22;11062;51.164;16.924;2022-07-03T00:27:15;35.00;40.60
21801;DHT22;11062;51.164;16.924;2022-07-03T00:29:45;35.00;40.80
21801;DHT22;11062;51.164;16.924;2022-07-03T00:32:14;34.90;40.70
21801;DHT22;11062;51.164;16.924;2022-07-03T00:34:46;35.00;40.40
21801;DHT22;11062;51.164;16.924;2022-07-03T00:37:12;35.00;40.30
21801;DHT22;11062;51.164;16.924;2022-07-03T00:39:42;35.00;40.00
21801;DHT22;11062;51.164;16.924;2022-07-03T00:42:09;35.00;40.00
21801;DHT22;11062;51.164;16.924;2022-07-03T00:44:55;34.90;40.00
21801;DHT22;11062;51.164;16.924;2022-07-03T00:47:22;35.00;40.30
21801;DHT22;11062;51.164;16.924;2022-07-03T00:49:53;34.90;40.00
21801;DHT22;11062;51.164;16.924;2022-07-03T00:52:20;35.20;40.00
21801;DHT22;11062;51.164;16.924;2022-07-03T00:54:57;35.30;39.80
21801;DHT22;11062;51.164;16.924;2022-07-03T00:57:29;35.50;39.50
21801;DHT22;11062;51.164;16.924;2022-07-03T00:59:55;35.50;39.60
21801;DHT22;11062;51.164;16.924;2022-07-03T01:02:40;35.60;39.40
21801;DHT22;11062;51.164;16.924;2022-07-03T01:13:31;36.70;38.40
21801;DHT22;11062;51.164;16.924;2022-07-03T01:16:07;36.80;38.10
21801;DHT22;11062;51.164;16.924;2022-07-03T01:21:34;36.90;37.50
21801;DHT22;11062;51.164;16.924;2022-07-03T01:26:28;37.00;37.20
21801;DHT22;11062;51.164;16.924;2022-07-03T01:29:06;37.10;36.70
21801;DHT22;11062;51.164;16.924;2022-07-03T01:31:33;37.10;36.60
21801;DHT22;11062;51.164;16.924;2022-07-03T01:34:06;37.10;36.50
21801;DHT22;11062;51.164;16.924;2022-07-03T01:36:34;37.10;36.50
21801;DHT22;11062;51.164;16.924;2022-07-03T01:39:04;37.10;36.60
21801;DHT22;11062;51.164;16.924;2022-07-03T01:41:31;37.10;36.90
21801;DHT22;11062;51.164;16.924;2022-07-03T01:43:59;37.10;37.40
21801;DHT22;11062;51.164;16.924;2022-07-03T01:46:30;37.00;36.90
21801;DHT22;11062;51.164;16.924;2022-07-03T01:48:57;37.00;36.90
21801;DHT22;11062;51.164;16.924;2022-07-03T01:51:23;37.00;37.00
21801;DHT22;11062;51.164;16.924;2022-07-03T01:53:51;37.00;37.20
21801;DHT22;11062;51.164;16.924;2022-07-03T01:56:19;37.00;37.00
21801;DHT22;11062;51.164;16.924;2022-07-03T01:58:45;37.00;36.80
21801;DHT22;11062;51.164;16.924;2022-07-03T02:01:26;37.00;36.60
21801;DHT22;11062;51.164;16.924;2022-07-03T02:04:28;37.00;36.40
21801;DHT22;11062;51.164;16.924;2022-07-03T02:07:02;37.00;36.50
21801;DHT22;11062;51.164;16.924;2022-07-03T02:09:58;36.90;36.60
21801;DHT22;11062;51.164;16.924;2022-07-03T02:12:33;36.90;36.40
21801;DHT22;11062;51.164;16.924;2022-07-03T02:15:09;36.90;36.50
21801;DHT22;11062;51.164;16.924;2022-07-03T02:17:47;36.90;36.50
21801;DHT22;11062;51.164;16.924;2022-07-03T02:20:18;36.80;36.50
21801;DHT22;11062;51.164;16.924;2022-07-03T02:22:57;36.70;36.70
21801;DHT22;11062;51.164;16.924;2022-07-03T02:31:09;36.10;37.90
21801;DHT22;11062;51.164;16.924;2022-07-03T02:33:37;35.90;38.00
21801;DHT22;11062;51.164;16.924;2022-07-03T02:36:05;35.80;38.50
21801;DHT22;11062;51.164;16.924;2022-07-03T02:38:35;35.70;38.60
21801;DHT22;11062;51.164;16.924;2022-07-03T02:44:07;35.60;38.70
21801;DHT22;11062;51.164;16.924;2022-07-03T02:49:53;35.40;38.20
21801;DHT22;11062;51.164;16.924;2022-07-03T02:52:54;35.30;38.20
21801;DHT22;11062;51.164;16.924;2022-07-03T02:55:42;35.30;37.90
21801;DHT22;11062;51.164;16.924;2022-07-03T02:58:39;35.30;38.20
21801;DHT22;11062;51.164;16.924;2022-07-03T03:06:42;35.10;38.90
21801;DHT22;11062;51.164;16.924;2022-07-03T03:09:19;35.10;39.30
21801;DHT22;11062;51.164;16.924;2022-07-03T03:11:50;35.10;39.50
21801;DHT22;11062;51.164;16.924;2022-07-03T03:14:20;35.00;40.10
21801;DHT22;11062;51.164;16.924;2022-07-03T03:16:53;34.90;40.00
21801;DHT22;11062;51.164;16.924;2022-07-03T03:19:23;35.10;39.90
21801;DHT22;11062;51.164;16.924;2022-07-03T03:22:02;35.20;39.70
21801;DHT22;11062;51.164;16.924;2022-07-03T03:24:33;35.20;39.60
21801;DHT22;11062;51.164;16.924;2022-07-03T03:26:59;35.00;39.70
21801;DHT22;11062;51.164;16.924;2022-07-03T03:29:26;35.00;40.00
21801;DHT22;11062;51.164;16.924;2022-07-03T03:31:53;34.90;40.00
21801;DHT22;11062;51.164;16.924;2022-07-03T03:34:22;34.80;40.30
21801;DHT22;11062;51.164;16.924;2022-07-03T03:36:52;34.80;40.40
21801;DHT22;11062;51.164;16.924;2022-07-03T03:39:17;34.80;40.90
21801;DHT22;11062;51.164;16.924;2022-07-03T03:41:43;34.70;40.80
21801;DHT22;11062;51.164;16.924;2022-07-03T03:44:09;34.70;40.80
21801;DHT22;11062;51.164;16.924;2022-07-03T03:46:35;34.70;41.70
21801;DHT22;11062;51.164;16.924;2022-07-03T03:49:01;34.60;41.30
21801;DHT22;11062;51.164;16.924;2022-07-03T03:51:27;34.60;41.50
21801;DHT22;11062;51.164;16.924;2022-07-03T03:53:56;34.60;41.70
21801;DHT22;11062;51.164;16.924;2022-07-03T03:56:23;34.60;41.80
21801;DHT22;11062;51.164;16.924;2022-07-03T03:58:49;34.50;42.10
21801;DHT22;11062;51.164;16.924;2022-07-03T04:01:15;34.50;42.60
21801;DHT22;11062;51.164;16.924;2022-07-03T04:03:44;34.40;42.80
21801;DHT22;11062;51.164;16.924;2022-07-03T04:06:10;34.40;43.10
21801;DHT22;11062;51.164;16.924;2022-07-03T04:08:36;34.50;43.70
21801;DHT22;11062;51.164;16.924;2022-07-03T04:11:02;34.50;43.00
21801;DHT22;11062;51.164;16.924;2022-07-03T04:13:28;34.70;43.00
21801;DHT22;11062;51.164;16.924;2022-07-03T04:15:54;34.90;42.80
21801;DHT22;11062;51.164;16.924;2022-07-03T04:18:21;35.10;42.50
21801;DHT22;11062;51.164;16.924;2022-07-03T04:20:47;35.30;42.10
21801;DHT22;11062;51.164;16.924;2022-07-03T04:23:13;35.50;42.10
21801;DHT22;11062;51.164;16.924;2022-07-03T04:25:41;35.70;41.90
21801;DHT22;11062;51.164;16.924;2022-07-03T04:28:08;35.80;41.70
21801;DHT22;11062;51.164;16.924;2022-07-03T04:30:34;35.90;41.70
21801;DHT22;11062;51.164;16.924;2022-07-03T04:33:00;35.90;41.70
21801;DHT22;11062;51.164;16.924;2022-07-03T04:35:28;36.00;42.40
21801;DHT22;11062;51.164;16.924;2022-07-03T04:37:54;36.10;41.50
21801;DHT22;11062;51.164;16.924;2022-07-03T04:40:20;36.10;42.30
21801;DHT22;11062;51.164;16.924;2022-07-03T04:42:46;36.30;41.60
21801;DHT22;11062;51.164;16.924;2022-07-03T04:45:15;36.50;41.60
21801;DHT22;11062;51.164;16.924;2022-07-03T04:47:41;36.70;41.50
21801;DHT22;11062;51.164;16.924;2022-07-03T04:50:07;36.70;41.50
21801;DHT22;11062;51.164;16.924;2022-07-03T04:52:33;36.90;41.40
21801;DHT22;11062;51.164;16.924;2022-07-03T04:55:02;37.00;41.40
21801;DHT22;11062;51.164;16.924;2022-07-03T04:57:28;37.10;41.30
21801;DHT22;11062;51.164;16.924;2022-07-03T04:59:57;37.10;41.90
21801;DHT22;11062;51.164;16.924;2022-07-03T05:02:22;37.20;41.10
21801;DHT22;11062;51.164;16.924;2022-07-03T05:04:48;37.20;41.10
21801;DHT22;11062;51.164;16.924;2022-07-03T05:07:14;37.30;41.30
21801;DHT22;11062;51.164;16.924;2022-07-03T05:09:40;37.30;41.40
21801;DHT22;11062;51.164;16.924;2022-07-03T05:12:09;37.30;41.30
21801;DHT22;11062;51.164;16.924;2022-07-03T05:14:38;37.30;41.60
21801;DHT22;11062;51.164;16.924;2022-07-03T05:17:04;37.30;41.50
21801;DHT22;11062;51.164;16.924;2022-07-03T05:19:30;37.40;41.30
21801;DHT22;11062;51.164;16.924;2022-07-03T05:21:59;37.50;41.20
21801;DHT22;11062;51.164;16.924;2022-07-03T05:24:25;37.50;41.00
21801;DHT22;11062;51.164;16.924;2022-07-03T05:26:51;37.50;40.80
21801;DHT22;11062;51.164;16.924;2022-07-03T05:29:16;37.60;40.90
21801;DHT22;11062;51.164;16.924;2022-07-03T05:31:48;37.70;40.80
21801;DHT22;11062;51.164;16.924;2022-07-03T05:34:14;37.70;40.90
21801;DHT22;11062;51.164;16.924;2022-07-03T05:36:40;37.80;40.70
21801;DHT22;11062;51.164;16.924;2022-07-03T05:39:06;37.90;40.60
21801;DHT22;11062;51.164;16.924;2022-07-03T05:41:50;37.80;40.60
21801;DHT22;11062;51.164;16.924;2022-07-03T05:44:22;37.90;40.70
21801;DHT22;11062;51.164;16.924;2022-07-03T05:46:50;38.00;40.60
21801;DHT22;11062;51.164;16.924;2022-07-03T05:49:16;38.00;40.40
21801;DHT22;11062;51.164;16.924;2022-07-03T05:51:42;38.20;40.20
21801;DHT22;11062;51.164;16.924;2022-07-03T05:54:08;38.30;40.10
21801;DHT22;11062;51.164;16.924;2022-07-03T05:56:34;38.40;40.00
21801;DHT22;11062;51.164;16.924;2022-07-03T05:59:00;38.40;40.00
21801;DHT22;11062;51.164;16.924;2022-07-03T06:01:26;38.40;40.00
21801;DHT22;11062;51.164;16.924;2022-07-03T06:03:55;38.50;39.90
21801;DHT22;11062;51.164;16.924;2022-07-03T06:06:20;38.60;40.00
21801;DHT22;11062;51.164;16.924;2022-07-03T06:08:46;38.70;40.00
21801;DHT22;11062;51.164;16.924;2022-07-03T06:11:12;38.70;40.00
21801;DHT22;11062;51.164;16.924;2022-07-03T06:13:41;38.70;39.90
21801;DHT22;11062;51.164;16.924;2022-07-03T06:16:07;38.70;39.60
21801;DHT22;11062;51.164;16.924;2022-07-03T06:18:33;38.80;39.50
21801;DHT22;11062;51.164;16.924;2022-07-03T06:21:02;38.70;39.20
21801;DHT22;11062;51.164;16.924;2022-07-03T06:23:28;38.80;39.20
21801;DHT22;11062;51.164;16.924;2022-07-03T06:25:54;38.80;39.30
21801;DHT22;11062;51.164;16.924;2022-07-03T06:28:23;38.70;39.50
21801;DHT22;11062;51.164;16.924;2022-07-03T06:30:49;38.80;39.50
21801;DHT22;11062;51.164;16.924;2022-07-03T06:33:15;38.70;39.40
21801;DHT22;11062;51.164;16.924;2022-07-03T06:35:43;38.80;39.30
21801;DHT22;11062;51.164;16.924;2022-07-03T06:38:09;38.80;39.50
21801;DHT22;11062;51.164;16.924;2022-07-03T06:40:36;38.80;39.40
21801;DHT22;11062;51.164;16.924;2022-07-03T06:43:02;38.90;39.30
21801;DHT22;11062;51.164;16.924;2022-07-03T06:45:27;38.90;39.20
21801;DHT22;11062;51.164;16.924;2022-07-03T06:47:53;38.80;39.10
21801;DHT22;11062;51.164;16.924;2022-07-03T06:50:22;38.60;39.00
21801;DHT22;11062;51.164;16.924;2022-07-03T06:52:48;38.80;39.40
21801;DHT22;11062;51.164;16.924;2022-07-03T06:55:14;38.60;39.30
21801;DHT22;11062;51.164;16.924;2022-07-03T06:57:43;38.40;39.40
21801;DHT22;11062;51.164;16.924;2022-07-03T07:00:10;38.30;39.60
21801;DHT22;11062;51.164;16.924;2022-07-03T07:02:36;38.50;39.40
21801;DHT22;11062;51.164;16.924;2022-07-03T07:05:02;38.40;39.60
21801;DHT22;11062;51.164;16.924;2022-07-03T07:07:28;38.10;39.50
21801;DHT22;11062;51.164;16.924;2022-07-03T07:09:54;38.40;40.10
21801;DHT22;11062;51.164;16.924;2022-07-03T07:12:20;38.30;40.10
21801;DHT22;11062;51.164;16.924;2022-07-03T07:14:46;38.60;39.90
21801;DHT22;11062;51.164;16.924;2022-07-03T07:17:11;38.80;40.00
21801;DHT22;11062;51.164;16.924;2022-07-03T07:19:37;38.90;39.50
21801;DHT22;11062;51.164;16.924;2022-07-03T07:22:04;39.00;39.00
21801;DHT22;11062;51.164;16.924;2022-07-03T07:24:30;39.00;39.10
21801;DHT22;11062;51.164;16.924;2022-07-03T07:26:56;39.10;38.30
21801;DHT22;11062;51.164;16.924;2022-07-03T07:29:22;39.20;38.90
21801;DHT22;11062;51.164;16.924;2022-07-03T07:31:48;39.20;39.10
21801;DHT22;11062;51.164;16.924;2022-07-03T07:34:14;39.10;38.90
21801;DHT22;11062;51.164;16.924;2022-07-03T07:36:40;39.20;38.60
21801;DHT22;11062;51.164;16.924;2022-07-03T07:39:06;39.20;38.20
21801;DHT22;11062;51.164;16.924;2022-07-03T07:41:36;39.40;37.10
21801;DHT22;11062;51.164;16.924;2022-07-03T07:44:02;39.50;37.60
21801;DHT22;11062;51.164;16.924;2022-07-03T07:46:29;39.40;38.10
21801;DHT22;11062;51.164;16.924;2022-07-03T07:48:55;39.50;37.60
21801;DHT22;11062;51.164;16.924;2022-07-03T07:51:21;39.50;38.20
21801;DHT22;11062;51.164;16.924;2022-07-03T07:53:47;39.40;36.80
21801;DHT22;11062;51.164;16.924;2022-07-03T07:56:13;39.30;36.50
21801;DHT22;11062;51.164;16.924;2022-07-03T07:58:39;39.00;36.80
21801;DHT22;11062;51.164;16.924;2022-07-03T08:01:05;38.90;36.30
21801;DHT22;11062;51.164;16.924;2022-07-03T08:03:49;39.00;37.20
21801;DHT22;11062;51.164;16.924;2022-07-03T08:06:34;39.20;37.40
21801;DHT22;11062;51.164;16.924;2022-07-03T08:08:59;38.50;35.60
21801;DHT22;11062;51.164;16.924;2022-07-03T08:11:25;37.90;36.00
21801;DHT22;11062;51.164;16.924;2022-07-03T08:13:51;38.30;37.40
21801;DHT22;11062;51.164;16.924;2022-07-03T08:16:20;38.40;37.40
21801;DHT22;11062;51.164;16.924;2022-07-03T08:18:46;38.80;37.60
21801;DHT22;11062;51.164;16.924;2022-07-03T08:21:12;39.20;37.10
21801;DHT22;11062;51.164;16.924;2022-07-03T08:23:38;39.30;36.40
21801;DHT22;11062;51.164;16.924;2022-07-03T08:26:05;39.40;36.20
21801;DHT22;11062;51.164;16.924;2022-07-03T08:28:31;39.70;36.10
21801;DHT22;11062;51.164;16.924;2022-07-03T08:30:57;40.10;35.70
21801;DHT22;11062;51.164;16.924;2022-07-03T08:33:23;40.30;35.60
21801;DHT22;11062;51.164;16.924;2022-07-03T08:35:54;40.40;35.30
21801;DHT22;11062;51.164;16.924;2022-07-03T08:38:26;40.00;35.00
21801;DHT22;11062;51.164;16.924;2022-07-03T08:40:54;39.70;35.20
21801;DHT22;11062;51.164;16.924;2022-07-03T08:43:20;39.50;35.70
21801;DHT22;11062;51.164;16.924;2022-07-03T08:45:46;39.30;35.80
21801;DHT22;11062;51.164;16.924;2022-07-03T08:48:12;39.10;35.90
21801;DHT22;11062;51.164;16.924;2022-07-03T08:50:41;38.50;36.20
21801;DHT22;11062;51.164;16.924;2022-07-03T08:53:10;38.70;36.90
21801;DHT22;11062;51.164;16.924;2022-07-03T08:55:36;38.80;37.30
21801;DHT22;11062;51.164;16.924;2022-07-03T08:58:05;39.00;37.40
21801;DHT22;11062;51.164;16.924;2022-07-03T09:00:38;38.90;36.50
21801;DHT22;11062;51.164;16.924;2022-07-03T09:03:09;39.40;36.50
21801;DHT22;11062;51.164;16.924;2022-07-03T09:05:36;39.60;37.00
21801;DHT22;11062;51.164;16.924;2022-07-03T09:08:02;39.60;35.70
21801;DHT22;11062;51.164;16.924;2022-07-03T09:10:31;39.50;35.30
21801;DHT22;11062;51.164;16.924;2022-07-03T09:12:58;39.60;35.60
21801;DHT22;11062;51.164;16.924;2022-07-03T09:15:24;39.60;35.80
21801;DHT22;11062;51.164;16.924;2022-07-03T09:18:03;39.40;36.00
21801;DHT22;11062;51.164;16.924;2022-07-03T09:20:41;39.70;35.40
21801;DHT22;11062;51.164;16.924;2022-07-03T09:23:20;39.20;35.30
21801;DHT22;11062;51.164;16.924;2022-07-03T09:28:21;39.40;35.20
21801;DHT22;11062;51.164;16.924;2022-07-03T09:31:01;39.60;35.10
21801;DHT22;11062;51.164;16.924;2022-07-03T09:33:32;39.90;34.60
21801;DHT22;11062;51.164;16.924;2022-07-03T09:35:58;40.10;34.60
21801;DHT22;11062;51.164;16.924;2022-07-03T09:38:27;40.20;34.40
21801;DHT22;11062;51.164;16.924;2022-07-03T09:40:54;40.30;33.90
21801;DHT22;11062;51.164;16.924;2022-07-03T09:43:29;40.50;33.60
21801;DHT22;11062;51.164;16.924;2022-07-03T09:46:00;40.90;33.70
21801;DHT22;11062;51.164;16.924;2022-07-03T09:48:35;41.00;32.80
21801;DHT22;11062;51.164;16.924;2022-07-03T09:51:20;41.10;33.00
21801;DHT22;11062;51.164;16.924;2022-07-03T09:59:11;41.40;32.80
21801;DHT22;11062;51.164;16.924;2022-07-03T10:01:43;41.60;32.20
21801;DHT22;11062;51.164;16.924;2022-07-03T10:04:22;41.60;31.50
21801;DHT22;11062;51.164;16.924;2022-07-03T10:06:57;41.80;31.20
21801;DHT22;11062;51.164;16.924;2022-07-03T10:09:29;41.80;32.90
21801;DHT22;11062;51.164;16.924;2022-07-03T10:11:57;41.70;32.70
21801;DHT22;11062;51.164;16.924;2022-07-03T10:14:26;41.50;32.70
21801;DHT22;11062;51.164;16.924;2022-07-03T10:16:56;41.50;32.00
21801;DHT22;11062;51.164;16.924;2022-07-03T10:19:26;41.80;32.30
21801;DHT22;11062;51.164;16.924;2022-07-03T10:22:06;42.40;31.90
21801;DHT22;11062;51.164;16.924;2022-07-03T10:24:38;42.80;31.50
21801;DHT22;11062;51.164;16.924;2022-07-03T10:27:09;43.00;31.40
21801;DHT22;11062;51.164;16.924;2022-07-03T10:29:38;43.20;31.30
21801;DHT22;11062;51.164;16.924;2022-07-03T10:32:09;43.50;30.80
21801;DHT22;11062;51.164;16.924;2022-07-03T10:34:36;43.50;30.80
21801;DHT22;11062;51.164;16.924;2022-07-03T10:37:05;43.70;32.30
21801;DHT22;11062;51.164;16.924;2022-07-03T10:39:48;43.80;31.10
21801;DHT22;11062;51.164;16.924;2022-07-03T10:42:24;44.00;31.40
21801;DHT22;11062;51.164;16.924;2022-07-03T10:45:11;44.30;29.80
21801;DHT22;11062;51.164;16.924;2022-07-03T10:47:50;44.50;30.40
21801;DHT22;11062;51.164;16.924;2022-07-03T10:50:21;44.60;31.40
21801;DHT22;11062;51.164;16.924;2022-07-03T10:52:48;44.80;29.80
21801;DHT22;11062;51.164;16.924;2022-07-03T10:55:18;45.20;30.00
21801;DHT22;11062;51.164;16.924;2022-07-03T10:58:20;45.30;29.80
21801;DHT22;11062;51.164;16.924;2022-07-03T11:00:53;45.60;29.10
21801;DHT22;11062;51.164;16.924;2022-07-03T11:04:00;45.80;29.70
21801;DHT22;11062;51.164;16.924;2022-07-03T11:09:23;46.10;30.40
21801;DHT22;11062;51.164;16.924;2022-07-03T11:11:49;46.20;29.80
21801;DHT22;11062;51.164;16.924;2022-07-03T11:14:30;46.30;29.10
21801;DHT22;11062;51.164;16.924;2022-07-03T11:19:40;46.30;28.50
21801;DHT22;11062;51.164;16.924;2022-07-03T11:22:12;46.60;28.30
21801;DHT22;11062;51.164;16.924;2022-07-03T11:24:47;46.70;28.70
21801;DHT22;11062;51.164;16.924;2022-07-03T11:27:26;46.80;28.70
21801;DHT22;11062;51.164;16.924;2022-07-03T11:29:58;46.70;28.90
21801;DHT22;11062;51.164;16.924;2022-07-03T11:38:15;46.40;28.70
21801;DHT22;11062;51.164;16.924;2022-07-03T11:40:42;46.60;28.20
21801;DHT22;11062;51.164;16.924;2022-07-03T11:43:11;46.60;27.70
21801;DHT22;11062;51.164;16.924;2022-07-03T11:45:39;46.40;28.10
21801;DHT22;11062;51.164;16.924;2022-07-03T11:48:09;46.40;27.80
21801;DHT22;11062;51.164;16.924;2022-07-03T11:50:41;46.30;27.70
21801;DHT22;11062;51.164;16.924;2022-07-03T11:53:25;46.30;27.90
21801;DHT22;11062;51.164;16.924;2022-07-03T11:58:51;46.70;27.90
21801;DHT22;11062;51.164;16.924;2022-07-03T12:01:28;47.00;28.60
21801;DHT22;11062;51.164;16.924;2022-07-03T12:04:09;47.30;27.80
21801;DHT22;11062;51.164;16.924;2022-07-03T12:06:46;47.80;28.40
21801;DHT22;11062;51.164;16.924;2022-07-03T12:09:25;48.00;27.90
21801;DHT22;11062;51.164;16.924;2022-07-03T12:12:03;48.30;27.00
21801;DHT22;11062;51.164;16.924;2022-07-03T12:14:56;48.40;26.90
21801;DHT22;11062;51.164;16.924;2022-07-03T12:17:24;48.50;26.70
21801;DHT22;11062;51.164;16.924;2022-07-03T12:19:55;48.10;26.80
21801;DHT22;11062;51.164;16.924;2022-07-03T12:22:34;48.30;27.40
21801;DHT22;11062;51.164;16.924;2022-07-03T12:25:05;48.50;27.60
21801;DHT22;11062;51.164;16.924;2022-07-03T12:27:37;48.70;27.90
21801;DHT22;11062;51.164;16.924;2022-07-03T12:30:04;49.10;27.50
21801;DHT22;11062;51.164;16.924;2022-07-03T12:32:30;49.40;26.30
21801;DHT22;11062;51.164;16.924;2022-07-03T12:35:00;49.10;26.80
21801;DHT22;11062;51.164;16.924;2022-07-03T12:37:38;49.30;26.40
21801;DHT22;11062;51.164;16.924;2022-07-03T12:40:09;49.00;26.90
21801;DHT22;11062;51.164;16.924;2022-07-03T12:42:47;49.30;27.60
21801;DHT22;11062;51.164;16.924;2022-07-03T12:45:16;49.40;26.30
21801;DHT22;11062;51.164;16.924;2022-07-03T12:47:42;49.40;26.10
21801;DHT22;11062;51.164;16.924;2022-07-03T12:50:08;49.30;26.50
21801;DHT22;11062;51.164;16.924;2022-07-03T12:52:54;49.30;26.60
21801;DHT22;11062;51.164;16.924;2022-07-03T12:55:28;49.50;26.80
21801;DHT22;11062;51.164;16.924;2022-07-03T12:58:16;49.50;26.70
21801;DHT22;11062;51.164;16.924;2022-07-03T13:01:02;49.60;26.60
21801;DHT22;11062;51.164;16.924;2022-07-03T13:03:35;49.80;27.20
21801;DHT22;11062;51.164;16.924;2022-07-03T13:06:01;49.70;27.30
21801;DHT22;11062;51.164;16.924;2022-07-03T13:08:28;50.00;26.40
21801;DHT22;11062;51.164;16.924;2022-07-03T13:10:58;49.90;27.10
21801;DHT22;11062;51.164;16.924;2022-07-03T13:13:25;50.10;26.30
21801;DHT22;11062;51.164;16.924;2022-07-03T13:15:52;50.10;26.10
21801;DHT22;11062;51.164;16.924;2022-07-03T13:18:18;50.20;26.30
21801;DHT22;11062;51.164;16.924;2022-07-03T13:20:44;50.20;26.00
21801;DHT22;11062;51.164;16.924;2022-07-03T13:23:10;50.20;25.90
21801;DHT22;11062;51.164;16.924;2022-07-03T13:25:37;50.10;26.00
21801;DHT22;11062;51.164;16.924;2022-07-03T13:28:14;49.80;25.80
21801;DHT22;11062;51.164;16.924;2022-07-03T13:30:41;49.50;26.20
21801;DHT22;11062;51.164;16.924;2022-07-03T13:33:08;49.20;26.20
21801;DHT22;11062;51.164;16.924;2022-07-03T13:35:37;49.00;26.20
21801;DHT22;11062;51.164;16.924;2022-07-03T13:38:03;49.10;26.50
21801;DHT22;11062;51.164;16.924;2022-07-03T13:40:30;49.00;26.30
21801;DHT22;11062;51.164;16.924;2022-07-03T13:42:56;49.20;26.60
21801;DHT22;11062;51.164;16.924;2022-07-03T13:45:22;49.20;26.60
21801;DHT22;11062;51.164;16.924;2022-07-03T13:47:51;48.90;25.80
21801;DHT22;11062;51.164;16.924;2022-07-03T13:50:20;49.20;26.20
21801;DHT22;11062;51.164;16.924;2022-07-03T13:52:46;49.40;26.70
21801;DHT22;11062;51.164;16.924;2022-07-03T13:55:12;49.80;26.60
21801;DHT22;11062;51.164;16.924;2022-07-03T13:57:38;50.30;26.60
21801;DHT22;11062;51.164;16.924;2022-07-03T14:00:04;50.50;25.60
21801;DHT22;11062;51.164;16.924;2022-07-03T14:02:30;50.50;25.80
21801;DHT22;11062;51.164;16.924;2022-07-03T14:04:56;50.80;26.60
21801;DHT22;11062;51.164;16.924;2022-07-03T14:07:22;51.00;26.20
21801;DHT22;11062;51.164;16.924;2022-07-03T14:09:48;51.00;25.40
21801;DHT22;11062;51.164;16.924;2022-07-03T14:12:14;51.20;25.30
21801;DHT22;11062;51.164;16.924;2022-07-03T14:14:40;51.40;25.20
21801;DHT22;11062;51.164;16.924;2022-07-03T14:17:06;51.30;25.20
21801;DHT22;11062;51.164;16.924;2022-07-03T14:19:32;51.40;25.10
21801;DHT22;11062;51.164;16.924;2022-07-03T14:21:58;51.10;25.00
21801;DHT22;11062;51.164;16.924;2022-07-03T14:24:24;51.00;24.80
21801;DHT22;11062;51.164;16.924;2022-07-03T14:26:50;51.00;25.10
21801;DHT22;11062;51.164;16.924;2022-07-03T14:29:37;50.70;24.90
21801;DHT22;11062;51.164;16.924;2022-07-03T14:32:21;50.50;24.90
21801;DHT22;11062;51.164;16.924;2022-07-03T14:35:01;50.10;24.80
21801;DHT22;11062;51.164;16.924;2022-07-03T14:37:28;50.00;24.80
21801;DHT22;11062;51.164;16.924;2022-07-03T14:39:55;50.00;25.40
21801;DHT22;11062;51.164;16.924;2022-07-03T14:42:21;49.70;25.20
21801;DHT22;11062;51.164;16.924;2022-07-03T14:44:47;49.60;25.50
21801;DHT22;11062;51.164;16.924;2022-07-03T14:47:13;49.30;25.40
21801;DHT22;11062;51.164;16.924;2022-07-03T14:49:39;49.20;25.60
21801;DHT22;11062;51.164;16.924;2022-07-03T14:52:06;49.30;25.80
21801;DHT22;11062;51.164;16.924;2022-07-03T14:54:33;49.50;26.00
21801;DHT22;11062;51.164;16.924;2022-07-03T14:57:01;49.40;25.50
21801;DHT22;11062;51.164;16.924;2022-07-03T15:02:21;49.20;25.80
21801;DHT22;11062;51.164;16.924;2022-07-03T15:07:21;48.40;25.30
21801;DHT22;11062;51.164;16.924;2022-07-03T15:10:04;48.30;26.00
21801;DHT22;11062;51.164;16.924;2022-07-03T15:12:33;48.40;25.20
21801;DHT22;11062;51.164;16.924;2022-07-03T15:15:02;48.60;25.50
21801;DHT22;11062;51.164;16.924;2022-07-03T15:17:28;48.70;25.90
21801;DHT22;11062;51.164;16.924;2022-07-03T15:19:58;48.40;25.80
21801;DHT22;11062;51.164;16.924;2022-07-03T15:22:27;48.30;25.80
21801;DHT22;11062;51.164;16.924;2022-07-03T15:24:53;47.90;26.30
21801;DHT22;11062;51.164;16.924;2022-07-03T15:27:21;47.80;26.00
21801;DHT22;11062;51.164;16.924;2022-07-03T15:29:50;48.10;27.10
21801;DHT22;11062;51.164;16.924;2022-07-03T15:32:18;48.10;26.40
21801;DHT22;11062;51.164;16.924;2022-07-03T15:34:44;48.00;26.50
21801;DHT22;11062;51.164;16.924;2022-07-03T15:40:03;48.80;25.30
21801;DHT22;11062;51.164;16.924;2022-07-03T15:43:15;49.00;25.20
21801;DHT22;11062;51.164;16.924;2022-07-03T15:51:45;48.90;25.50
21801;DHT22;11062;51.164;16.924;2022-07-03T15:57:04;48.90;25.60
21801;DHT22;11062;51.164;16.924;2022-07-03T15:59:35;48.90;25.50
21801;DHT22;11062;51.164;16.924;2022-07-03T16:02:10;48.80;25.50
21801;DHT22;11062;51.164;16.924;2022-07-03T16:07:15;49.10;26.00
21801;DHT22;11062;51.164;16.924;2022-07-03T16:09:42;49.30;25.50
21801;DHT22;11062;51.164;16.924;2022-07-03T16:12:14;49.40;25.30
21801;DHT22;11062;51.164;16.924;2022-07-03T16:14:51;49.30;25.60
21801;DHT22;11062;51.164;16.924;2022-07-03T16:17:19;49.10;25.30
21801;DHT22;11062;51.164;16.924;2022-07-03T16:19:47;49.40;25.50
21801;DHT22;11062;51.164;16.924;2022-07-03T16:22:13;49.70;25.20
21801;DHT22;11062;51.164;16.924;2022-07-03T16:24:42;49.40;24.90
21801;DHT22;11062;51.164;16.924;2022-07-03T16:27:15;49.40;25.10
21801;DHT22;11062;51.164;16.924;2022-07-03T16:29:41;49.20;25.20
21801;DHT22;11062;51.164;16.924;2022-07-03T16:32:13;49.10;25.50
21801;DHT22;11062;51.164;16.924;2022-07-03T16:35:04;48.90;25.40
21801;DHT22;11062;51.164;16.924;2022-07-03T16:37:45;48.80;26.00
21801;DHT22;11062;51.164;16.924;2022-07-03T16:40:12;49.00;26.30
21801;DHT22;11062;51.164;16.924;2022-07-03T16:42:43;48.80;25.90
21801;DHT22;11062;51.164;16.924;2022-07-03T16:45:10;48.70;25.80
21801;DHT22;11062;51.164;16.924;2022-07-03T16:47:39;48.50;25.80